^^

Nearby METAR Reports

 

EGHH - Bournemouth Airp, United Kingdom
Distance from station: S 10mi, 17km
Updated: 15/08/2018 23:50
NOT Current
Mostly cloudy
Mostly cloudy
 Wind from SW
Wind: SW 14 mph , 22 km/h
Temperature: 18°C
Dew Point: 16°C
Humidity: 88%
Barometer: 1016 hPa
Clouds: Mostly cloudy
Visibility: 6 miles , 10 km
Cloud details: Partly cloudy 335 m
Mostly cloudy 671 m
2018/08/15 22:50 EGHH 152250Z 23012KT 9999 SCT011 BKN022 18/16 Q1016
EGDM - Boscombe Down, United Kingdom
Distance from station: N 16mi, 26km
Updated: 15/08/2018 23:50
NOT Current
Mostly cloudy
Mostly cloudy
 Wind from SSW
Wind: SSW 12 mph , 19 km/h
Temperature: 17°C
Dew Point: 15°C
Humidity: 88%
Barometer: 1015 hPa
Clouds: Mostly cloudy
Visibility: 6 miles , 10 km
Cloud details: Partly cloudy 366 m
Mostly cloudy 914 m
2018/08/15 22:50 EGDM 152250Z AUTO 20010KT 9999 SCT012/// BKN030/// 17/15 Q1015
 
EGVP - Middle Wallop, United Kingdom
Distance from station: NE 17mi, 27km
Updated: 15/08/2018 23:50
NOT Current
Mostly cloudy
Mostly cloudy
 Wind from SSW
Wind: SSW 9 mph , 15 km/h
Temperature: 18°C
Dew Point: 15°C
Humidity: 83%
Barometer: 1015 hPa
Clouds: Mostly cloudy
Visibility: 6 miles , 10 km
Cloud details: Few Clouds 366 m
Mostly cloudy 945 m
2018/08/15 22:50 EGVP 152250Z AUTO 21008KT 9999 // FEW012/// BKN031/// 18/15 Q1015
EGHI - Southampton Wx C, United Kingdom
Distance from station: E 19mi, 31km
Updated: 15/08/2018 22:20
NOT Current
Partly cloudy
Partly cloudy
 Wind from SW
Wind: SW 9 mph , 15 km/h
Temperature: 17°C
Dew Point: 15°C
Humidity: 88%
Barometer: 1016 hPa
Clouds: Partly cloudy
Visibility: 6 miles , 10 km
Cloud details: Partly cloudy 1158 m
2018/08/15 21:20 EGHI 152120Z 22008KT 9999 SCT038 17/15 Q1016
 
EGDY - Yeovilton (navy), United Kingdom
Distance from station: W 36mi, 58km
Updated: 15/08/2018 23:50
NOT Current
Mostly cloudy
Mostly cloudy
 Wind from SSW
Wind: SSW 12 mph , 19 km/h
Temperature: 18°C
Dew Point: 15°C
Humidity: 83%
Barometer: 1015 hPa
Clouds: Mostly cloudy
Visibility: 6 miles , 10 km
Cloud details: Partly cloudy 396 m
Mostly cloudy 853 m
2018/08/15 22:50 EGDY 152250Z AUTO 21010KT 9999 SCT013/// BKN028/// 18/15 Q1015
EGUO - Colerne Raf, United Kingdom
Distance from station: NNW 41mi, 66km
Updated: 21/03/2018 08:50
NOT Current
Clear
Clear
 Wind from W
Wind: W 6 mph , 9 km/h
Temperature: 5°C
Wind Chill: 3°C
Dew Point: 1°C
Humidity: 76%
Barometer: 1032 hPa
Clouds: Clear
Visibility: 6 miles , 10 km
2018/03/21 08:50 EGUO 210850Z 27005KT 9999 NCD 05/01 Q1032 BLU NOSIG
 
EGVO - Odiham Raf, United Kingdom
Distance from station: ENE 42mi, 68km
Updated: 15/08/2018 23:50
NOT Current
Mostly cloudy
Mostly cloudy
 Wind from SW
Wind: SW 13 mph , 20 km/h
Temperature: 18°C
Dew Point: 15°C
Humidity: 83%
Barometer: 1016 hPa
Clouds: Mostly cloudy
Visibility: 6 miles , 10 km
Cloud details: Few Clouds 396 m
Mostly cloudy 732 m
2018/08/15 22:50 EGVO 152250Z 22011KT 9999 FEW013 BKN024 18/15 Q1016 WHT
EGGD - Bristol/Lulsgate, United Kingdom
Distance from station: NW 50mi, 81km
Updated: 16/08/2018 00:50
Mostly cloudy
Mostly cloudy
 Wind from SSW
Wind: SSW 12 mph , 19 km/h
Temperature: 17°C
Dew Point: 17°C
Humidity: 100%
Barometer: 1014 hPa
Clouds: Mostly cloudy
Visibility: 6 miles , 10 km
Cloud details: Partly cloudy 244 m
Partly cloudy 610 m
Mostly cloudy 914 m
2018/08/15 23:50 EGGD 152350Z AUTO 20010KT 9999 SCT008 SCT020 BKN030 17/17 Q1014